Grand Lake, CO

1:11 AM MDT on March 29, 2015 (GMT -0600)
RAWS HARBISON MEADOW CO US | | Change Station
CLOSE
Current Station
Personal Weather Station
Location: Grand Lake, CO
Elevation: 8500 ft
Nearby Weather Stations

Elev 8500 ft 40.27 °N, 105.84 °W | Updated 5 days ago

Clear
Clear
32 °F
Feels Like 22 °F
N
15
Wind Variable Wind from WNW
Gusts 26 mph

Today
High -- | Low -- °F
--% Chance of Precip.
Yesterday
High -- | Low -- °F
Precip. -- in
6:52 AM 7:24 PM
Waxing Gibbous, 69% visible
Pressure 30.24 in
Visibility 10.0 miles
Clouds Clear
Windchill 22 °F
Dew Point 23 °F
Humidity 71%
Rainfall in
Snow Depth Not available.
UV 0 out of 12
Pollen 11.10 out of 12
Air Quality Not available.
Flu Activity Not available.
METAR K20V 290656Z AUTO 26006KT 10SM CLR 08/M09 A3024 RMK AO2

More Conditions Fewer Conditions

Pressure 30.24 in
Visibility 10.0 miles
Clouds Clear
Windchill 22 °F
Dew Point 23 °F
Humidity 71%
Rainfall in
Snow Depth Not available.
UV 0 out of 12
Pollen 11.10 out of 12
Air Quality Not available.
Flu Activity Not available.
METAR K20V 290656Z AUTO 26006KT 10SM CLR 08/M09 A3024 RMK AO2

More Conditions Fewer Conditions

Nowcast | as of 10:43 PM MDT on March 28, 2015

Isolated light rain and snow showers will move across Summit and grand counties into Clear Creek and park counties through 2 am. The snow level will be around 10 thousand feet. Wind gusts to 40 mph are possible with some of the showers.

×

10-Day Weather Forecast

Almanac

Astronomy

Mar. 29, 2015 Rise Set
Actual Time
Civil Twilight
Nautical Twilight
Astronomical Twilight
Moon
Length of Visible Light
Length of Day
Tomorrow will be .
, % of the Moon is Illuminated

Today's Extremes

State Highs State Lows

Community

WunderPhotos

Upload Photos

1,809,187 photos uploaded!

WunderBlogs® & News

Nearby

Air Quality

  Air Quality AQ Index Pollutant
Not available.

Snow Depth

Station Depth Elevation

Earthquake Activity

City Distance Mag. Time & Date
Minimum magnitude displayed is 2.5.

Coastal Water Temperatures

Place Temperature

Stations

Nearby Weather Stations

Station Location Temp. Windchill Dew Point Humidity Wind Precip. Elev Updated Type